createdAt,value
2022-12-23T00:00:44.410Z,8.89
2022-12-23T00:01:46.286Z,8.91
2022-12-23T00:02:49.216Z,8.91
2022-12-23T00:03:51.536Z,8.94
2022-12-23T00:04:54.264Z,8.93
2022-12-23T00:05:56.285Z,8.93
2022-12-23T00:07:00.397Z,8.96
2022-12-23T00:08:02.060Z,8.96
2022-12-23T00:09:04.889Z,8.97
2022-12-23T00:10:07.393Z,8.98
2022-12-23T00:11:13.678Z,8.99
2022-12-23T00:12:42.523Z,9.01
2022-12-23T00:14:03.251Z,9.00
2022-12-23T00:15:05.864Z,9.01
2022-12-23T00:16:10.168Z,9.01
2022-12-23T00:17:21.947Z,9.00
2022-12-23T00:18:24.987Z,9.00
2022-12-23T00:19:26.687Z,9.02
2022-12-23T00:20:29.333Z,8.98
2022-12-23T00:21:31.077Z,8.98
2022-12-23T00:22:52.685Z,8.99
2022-12-23T00:23:55.376Z,8.96
2022-12-23T00:24:57.116Z,8.96
2022-12-23T00:25:59.845Z,8.92
2022-12-23T00:27:01.537Z,8.92
2022-12-23T00:28:04.283Z,8.91
2022-12-23T00:29:06.988Z,8.93
2022-12-23T00:30:10.805Z,8.89
2022-12-23T00:31:14.369Z,8.91
2022-12-23T00:32:16.560Z,8.91
2022-12-23T00:33:20.718Z,8.93
2022-12-23T00:34:23.540Z,8.93
2022-12-23T00:35:25.235Z,8.93
2022-12-23T00:36:29.272Z,8.97
2022-12-23T00:37:31.139Z,8.96
2022-12-23T00:38:52.772Z,8.99
2022-12-23T00:40:13.091Z,9.00
2022-12-23T00:41:35.590Z,8.99
2022-12-23T00:42:56.452Z,9.00
2022-12-23T00:43:58.416Z,9.03
2022-12-23T00:45:15.691Z,9.06
2022-12-23T00:46:18.898Z,9.08
2022-12-23T00:47:41.206Z,9.09
2022-12-23T00:49:01.852Z,9.08
2022-12-23T00:50:03.786Z,9.07
2022-12-23T00:51:07.239Z,9.05
2022-12-23T00:52:10.641Z,9.06
2022-12-23T00:53:13.287Z,9.06
2022-12-23T00:54:17.050Z,9.06
2022-12-23T00:55:19.917Z,9.05
2022-12-23T00:56:21.597Z,9.08
2022-12-23T00:57:24.262Z,9.10
2022-12-23T00:58:26.623Z,9.11
2022-12-23T00:59:29.352Z,9.15
2022-12-23T01:00:49.453Z,9.17
2022-12-23T01:02:09.714Z,9.19
2022-12-23T01:03:30.881Z,9.21
2022-12-23T01:04:51.396Z,9.21
2022-12-23T01:05:58.734Z,9.19
2022-12-23T01:07:00.702Z,9.14
2022-12-23T01:08:03.777Z,9.12
2022-12-23T01:09:05.478Z,9.12
2022-12-23T01:10:10.392Z,9.11
2022-12-23T01:11:12.642Z,9.12
2022-12-23T01:12:15.527Z,9.12
2022-12-23T01:13:17.197Z,9.15
2022-12-23T01:14:19.928Z,9.13
2022-12-23T01:15:21.606Z,9.14
2022-12-23T01:16:24.454Z,9.16
2022-12-23T01:17:26.208Z,9.13
2022-12-23T01:18:29.038Z,9.12
2022-12-23T01:19:30.707Z,9.15
2022-12-23T01:20:33.440Z,9.15
2022-12-23T01:21:35.404Z,9.15
2022-12-23T01:22:38.229Z,9.18
2022-12-23T01:23:39.995Z,9.18
2022-12-23T01:24:42.682Z,9.19
2022-12-23T01:25:45.793Z,9.19
2022-12-23T01:26:48.581Z,9.21
2022-12-23T01:27:51.252Z,9.17
2022-12-23T01:28:53.779Z,9.18
2022-12-23T01:29:56.475Z,9.19
2022-12-23T01:31:00.113Z,9.14
2022-12-23T01:32:02.780Z,9.17
2022-12-23T01:33:04.906Z,9.13
2022-12-23T01:34:07.568Z,9.12
2022-12-23T01:35:09.363Z,9.10
2022-12-23T01:36:12.436Z,9.09
2022-12-23T01:37:14.175Z,9.07
2022-12-23T01:38:16.932Z,9.05
2022-12-23T01:39:18.825Z,9.02
2022-12-23T01:40:21.476Z,9.00
2022-12-23T01:41:44.284Z,8.97
2022-12-23T01:42:46.750Z,9.01
2022-12-23T01:43:50.637Z,8.97
2022-12-23T01:44:59.985Z,9.00
2022-12-23T01:46:01.848Z,9.01
2022-12-23T01:47:05.728Z,9.01
2022-12-23T01:48:10.934Z,9.00
2022-12-23T01:49:12.592Z,9.01
2022-12-23T01:50:18.846Z,8.98
2022-12-23T01:51:23.169Z,8.99
2022-12-23T01:52:26.190Z,9.02
2022-12-23T01:53:31.220Z,9.04
2022-12-23T01:54:33.041Z,9.04
2022-12-23T01:55:40.560Z,9.02
2022-12-23T01:56:44.199Z,9.03
2022-12-23T01:57:47.554Z,9.04
2022-12-23T01:58:51.264Z,9.07
2022-12-23T02:00:11.345Z,9.06
2022-12-23T02:01:31.814Z,9.05
2022-12-23T02:02:54.720Z,9.06
2022-12-23T02:03:59.866Z,9.05
2022-12-23T02:05:01.828Z,9.02
2022-12-23T02:06:18.900Z,9.04
2022-12-23T02:07:39.396Z,8.97
2022-12-23T02:08:59.832Z,8.96
2022-12-23T02:10:02.587Z,8.95
2022-12-23T02:11:35.600Z,8.94
2022-12-23T02:12:44.802Z,8.89
2022-12-23T02:14:07.205Z,8.85
2022-12-23T02:15:34.949Z,8.83
2022-12-23T02:16:42.861Z,8.83
2022-12-23T02:17:52.612Z,8.85
2022-12-23T02:19:05.341Z,8.86
2022-12-23T02:20:29.741Z,8.86
2022-12-23T02:22:03.284Z,8.87
2022-12-23T02:23:26.561Z,8.80
2022-12-23T02:25:05.888Z,8.77
2022-12-23T02:26:18.637Z,8.80
2022-12-23T02:27:28.425Z,8.82
2022-12-23T02:28:49.895Z,8.80
2022-12-23T02:30:05.931Z,8.79
2022-12-23T02:31:13.530Z,8.79
2022-12-23T02:32:19.132Z,8.79
2022-12-23T02:33:30.138Z,8.78
2022-12-23T02:34:39.000Z,8.78
2022-12-23T02:35:45.123Z,8.79
2022-12-23T02:36:54.224Z,8.75
2022-12-23T02:38:00.132Z,8.77
2022-12-23T02:39:07.965Z,8.78
2022-12-23T02:40:13.159Z,8.75
2022-12-23T02:41:21.431Z,8.76
2022-12-23T02:42:26.064Z,8.76
2022-12-23T02:43:35.290Z,8.77
2022-12-23T02:44:43.496Z,8.79
2022-12-23T02:45:50.231Z,8.79
2022-12-23T02:46:59.245Z,8.80
2022-12-23T02:48:06.463Z,8.80
2022-12-23T02:49:11.020Z,8.80
2022-12-23T02:50:18.595Z,8.79
2022-12-23T02:51:22.801Z,8.76
2022-12-23T02:52:30.990Z,8.76
2022-12-23T02:53:37.923Z,8.74
2022-12-23T02:54:45.827Z,8.73
2022-12-23T02:55:48.859Z,8.72
2022-12-23T02:56:53.406Z,8.69
2022-12-23T02:57:55.939Z,8.69
2022-12-23T02:59:02.866Z,8.68
2022-12-23T03:00:06.664Z,8.64
2022-12-23T03:01:09.449Z,8.66
2022-12-23T03:02:12.861Z,8.65
2022-12-23T03:03:17.130Z,8.64
2022-12-23T03:04:19.004Z,8.63
2022-12-23T03:05:26.529Z,8.63
2022-12-23T03:06:30.706Z,8.63
2022-12-23T03:07:36.691Z,8.60
2022-12-23T03:08:43.143Z,8.62
2022-12-23T03:09:50.654Z,8.63
2022-12-23T03:11:02.537Z,8.60
2022-12-23T03:12:10.111Z,8.64
2022-12-23T03:13:20.928Z,8.57
2022-12-23T03:14:35.153Z,8.61
2022-12-23T03:15:41.774Z,8.60
2022-12-23T03:16:52.701Z,8.62
2022-12-23T03:18:02.112Z,8.63
2022-12-23T03:19:10.169Z,8.61
2022-12-23T03:20:15.100Z,8.59
2022-12-23T03:21:21.412Z,8.59
2022-12-23T03:22:26.365Z,8.59
2022-12-23T03:23:31.785Z,8.61
2022-12-23T03:24:40.589Z,8.61
2022-12-23T03:25:45.907Z,8.56
2022-12-23T03:26:51.729Z,8.55
2022-12-23T03:27:57.615Z,8.53
2022-12-23T03:29:03.180Z,8.51
2022-12-23T03:30:08.259Z,8.51
2022-12-23T03:31:13.324Z,8.51
2022-12-23T03:32:17.233Z,8.49
2022-12-23T03:33:22.894Z,8.51
2022-12-23T03:34:30.033Z,8.49
2022-12-23T03:35:35.289Z,8.48
2022-12-23T03:36:39.789Z,8.49
2022-12-23T03:37:44.875Z,8.49
2022-12-23T03:38:49.939Z,8.54
2022-12-23T03:39:54.479Z,8.56
2022-12-23T03:40:59.477Z,8.56
2022-12-23T03:42:04.864Z,8.57
2022-12-23T03:43:10.636Z,8.59
2022-12-23T03:44:15.935Z,8.62
2022-12-23T03:45:39.836Z,8.65
2022-12-23T03:46:45.524Z,8.66
2022-12-23T03:47:51.613Z,8.65
2022-12-23T03:48:56.441Z,8.65
2022-12-23T03:50:01.739Z,8.63
2022-12-23T03:51:08.045Z,8.61
2022-12-23T03:52:20.537Z,8.61
2022-12-23T03:53:25.766Z,8.60
2022-12-23T03:54:32.162Z,8.57
2022-12-23T03:55:36.139Z,8.58
2022-12-23T03:56:43.452Z,8.57
2022-12-23T03:57:48.388Z,8.51
2022-12-23T03:58:55.053Z,8.53
2022-12-23T03:59:56.830Z,8.52
2022-12-23T04:01:05.313Z,8.54
2022-12-23T04:02:09.309Z,8.53
2022-12-23T04:03:16.005Z,8.55
2022-12-23T04:04:25.579Z,8.52
2022-12-23T04:05:30.887Z,8.52
2022-12-23T04:06:36.986Z,8.52
2022-12-23T04:07:42.061Z,8.49
2022-12-23T04:08:44.784Z,8.47
2022-12-23T04:09:48.292Z,8.48
2022-12-23T04:10:50.316Z,8.45
2022-12-23T04:11:53.377Z,8.44
2022-12-23T04:12:55.328Z,8.46
2022-12-23T04:13:58.034Z,8.48
2022-12-23T04:14:59.827Z,8.50
2022-12-23T04:16:03.157Z,8.49
2022-12-23T04:17:04.948Z,8.49
2022-12-23T04:18:07.774Z,8.49
2022-12-23T04:19:09.538Z,8.46
2022-12-23T04:20:13.933Z,8.47
2022-12-23T04:21:15.628Z,8.48
2022-12-23T04:22:18.477Z,8.47
2022-12-23T04:23:20.151Z,8.46
2022-12-23T04:24:22.910Z,8.46
2022-12-23T04:25:24.603Z,8.47
2022-12-23T04:26:27.240Z,8.47
2022-12-23T04:27:28.939Z,8.47
2022-12-23T04:28:31.602Z,8.46
2022-12-23T04:29:33.403Z,8.45
2022-12-23T04:30:36.094Z,8.45
2022-12-23T04:31:37.797Z,8.44
2022-12-23T04:32:40.904Z,8.45
2022-12-23T04:33:42.701Z,8.45
2022-12-23T04:34:45.412Z,8.41
2022-12-23T04:35:48.489Z,8.38
2022-12-23T04:36:51.200Z,8.35
2022-12-23T04:37:52.893Z,8.33
2022-12-23T04:38:55.546Z,8.33
2022-12-23T04:39:57.247Z,8.32
2022-12-23T04:40:59.888Z,8.31
2022-12-23T04:42:01.565Z,8.28
2022-12-23T04:43:04.312Z,8.30
2022-12-23T04:44:06.579Z,8.28
2022-12-23T04:45:10.291Z,8.29
2022-12-23T04:46:11.998Z,8.25
2022-12-23T04:47:14.654Z,8.24
2022-12-23T04:48:16.309Z,8.17
2022-12-23T04:49:19.101Z,8.17
2022-12-23T04:50:20.861Z,8.13
2022-12-23T04:51:24.923Z,8.15
2022-12-23T04:52:26.654Z,8.13
2022-12-23T04:53:29.346Z,8.09
2022-12-23T04:54:31.080Z,8.10
2022-12-23T04:55:33.879Z,8.09
2022-12-23T04:56:35.582Z,8.09
2022-12-23T04:57:38.263Z,8.07
2022-12-23T04:58:40.027Z,8.07
2022-12-23T04:59:42.689Z,8.07
2022-12-23T05:00:44.414Z,8.02
2022-12-23T05:01:47.392Z,8.00
2022-12-23T05:02:49.330Z,8.01
2022-12-23T05:03:52.050Z,7.99
2022-12-23T05:04:54.764Z,8.03
2022-12-23T05:05:56.579Z,8.00
2022-12-23T05:07:00.635Z,8.01
2022-12-23T05:08:03.651Z,8.01
2022-12-23T05:09:06.596Z,8.03
2022-12-23T05:10:09.711Z,8.01
2022-12-23T05:11:12.352Z,8.00
2022-12-23T05:12:14.054Z,7.99
2022-12-23T05:13:16.846Z,7.98
2022-12-23T05:14:19.568Z,7.97
2022-12-23T05:15:21.301Z,7.96
2022-12-23T05:16:24.046Z,7.96
2022-12-23T05:17:25.904Z,7.95
2022-12-23T05:18:28.596Z,7.94
2022-12-23T05:19:30.349Z,7.91
2022-12-23T05:20:32.961Z,7.91
2022-12-23T05:21:34.739Z,7.89
2022-12-23T05:22:38.833Z,7.87
2022-12-23T05:23:40.647Z,7.90
2022-12-23T05:24:43.656Z,7.89
2022-12-23T05:25:50.716Z,7.90
2022-12-23T05:26:59.809Z,7.87
2022-12-23T05:28:02.316Z,7.84
2022-12-23T05:29:05.608Z,7.85
2022-12-23T05:30:08.641Z,7.83
2022-12-23T05:31:11.900Z,7.83
2022-12-23T05:32:13.701Z,7.81
2022-12-23T05:33:16.425Z,7.80
2022-12-23T05:34:18.199Z,7.82
2022-12-23T05:35:20.917Z,7.82
2022-12-23T05:36:22.651Z,7.80
2022-12-23T05:37:25.310Z,7.82
2022-12-23T05:38:28.387Z,7.82
2022-12-23T05:39:31.077Z,7.84
2022-12-23T05:40:34.002Z,7.84
2022-12-23T05:41:36.834Z,7.83
2022-12-23T05:42:38.537Z,7.86
2022-12-23T05:43:41.322Z,7.87
2022-12-23T05:44:42.964Z,7.88
2022-12-23T05:45:46.025Z,7.88
2022-12-23T05:46:47.750Z,7.90
2022-12-23T05:47:50.440Z,7.91
2022-12-23T05:48:52.132Z,7.93
2022-12-23T05:49:54.744Z,7.96
2022-12-23T05:50:57.465Z,7.98
2022-12-23T05:51:59.188Z,7.97
2022-12-23T05:53:02.025Z,7.97
2022-12-23T05:54:05.319Z,7.98
2022-12-23T05:55:09.361Z,7.99
2022-12-23T05:56:11.087Z,8.00
2022-12-23T05:57:14.217Z,8.01
2022-12-23T05:58:16.272Z,8.03
2022-12-23T05:59:19.028Z,8.02
2022-12-23T06:00:21.569Z,8.05
2022-12-23T06:01:24.273Z,8.03
2022-12-23T06:02:26.114Z,8.01
2022-12-23T06:03:29.049Z,8.04
2022-12-23T06:04:31.056Z,8.07
2022-12-23T06:05:33.829Z,8.05
2022-12-23T06:06:35.552Z,8.09
2022-12-23T06:07:39.022Z,8.09
2022-12-23T06:08:40.711Z,8.13
2022-12-23T06:09:44.838Z,8.13
2022-12-23T06:10:46.621Z,8.09
2022-12-23T06:11:49.469Z,8.11
2022-12-23T06:12:51.139Z,8.11
2022-12-23T06:13:54.061Z,8.14
2022-12-23T06:14:55.762Z,8.17
2022-12-23T06:15:58.485Z,8.15
2022-12-23T06:17:00.384Z,8.18
2022-12-23T06:18:03.088Z,8.20
2022-12-23T06:19:04.813Z,8.22
2022-12-23T06:20:10.327Z,8.24
2022-12-23T06:21:13.894Z,8.24
2022-12-23T06:22:17.759Z,8.26
2022-12-23T06:23:19.474Z,8.25
2022-12-23T06:24:22.212Z,8.26
2022-12-23T06:25:25.238Z,8.26
2022-12-23T06:26:27.927Z,8.28
2022-12-23T06:27:29.618Z,8.30
2022-12-23T06:28:32.317Z,8.29
2022-12-23T06:29:34.014Z,8.31
2022-12-23T06:30:36.712Z,8.34
2022-12-23T06:31:38.441Z,8.35
2022-12-23T06:32:41.219Z,8.40
2022-12-23T06:33:42.966Z,8.43
2022-12-23T06:34:46.646Z,8.47
2022-12-23T06:35:48.411Z,8.49
2022-12-23T06:36:51.052Z,8.51
2022-12-23T06:37:53.358Z,8.54
2022-12-23T06:38:56.238Z,8.58
2022-12-23T06:39:57.940Z,8.62
2022-12-23T06:41:02.158Z,8.64
2022-12-23T06:42:04.083Z,8.67
2022-12-23T06:43:06.828Z,8.69
2022-12-23T06:44:09.414Z,8.71
2022-12-23T06:45:13.239Z,8.73
2022-12-23T06:46:14.948Z,8.76
2022-12-23T06:47:17.667Z,8.77
2022-12-23T06:48:20.184Z,8.79
2022-12-23T06:49:23.012Z,8.81
2022-12-23T06:50:24.678Z,8.82
2022-12-23T06:51:27.438Z,8.84
2022-12-23T06:52:29.124Z,8.89
2022-12-23T06:53:31.834Z,8.91
2022-12-23T06:54:33.549Z,8.93
2022-12-23T06:55:36.432Z,8.94
2022-12-23T06:56:39.714Z,8.97
2022-12-23T06:57:42.401Z,9.00
2022-12-23T06:58:44.126Z,9.03
2022-12-23T06:59:46.788Z,9.05
2022-12-23T07:00:48.577Z,9.04
2022-12-23T07:01:51.465Z,9.04
2022-12-23T07:02:53.526Z,9.02
2022-12-23T07:03:56.281Z,9.00
2022-12-23T07:04:58.023Z,9.00
2022-12-23T07:06:00.726Z,8.99
2022-12-23T07:07:02.461Z,8.98
2022-12-23T07:08:05.285Z,8.97
2022-12-23T07:09:07.395Z,8.98
2022-12-23T07:10:10.608Z,8.98
2022-12-23T07:11:12.316Z,8.96
2022-12-23T07:12:16.438Z,8.97
2022-12-23T07:13:18.255Z,8.98
2022-12-23T07:14:20.941Z,9.00
2022-12-23T07:15:22.631Z,9.01
2022-12-23T07:16:25.455Z,9.00
2022-12-23T07:17:30.690Z,9.01
2022-12-23T07:18:34.278Z,9.00
2022-12-23T07:19:37.065Z,8.97
2022-12-23T07:20:38.744Z,8.96
2022-12-23T07:21:41.448Z,8.96
2022-12-23T07:22:43.191Z,8.97
2022-12-23T07:23:45.858Z,8.94
2022-12-23T07:24:48.556Z,8.90
2022-12-23T07:25:52.421Z,8.89
2022-12-23T07:26:55.979Z,8.90
2022-12-23T07:27:59.244Z,8.90
2022-12-23T07:29:02.765Z,8.89
2022-12-23T07:30:06.539Z,8.84
2022-12-23T07:31:08.376Z,8.80
2022-12-23T07:32:11.199Z,8.81
2022-12-23T07:33:12.959Z,8.83
2022-12-23T07:34:15.654Z,8.83
2022-12-23T07:35:18.513Z,8.80
2022-12-23T07:36:21.339Z,8.80
2022-12-23T07:37:23.039Z,8.82
2022-12-23T07:38:25.707Z,8.81
2022-12-23T07:39:27.365Z,8.82
2022-12-23T07:40:30.124Z,8.80
2022-12-23T07:41:31.933Z,8.78
2022-12-23T07:42:45.049Z,8.80
2022-12-23T07:43:49.201Z,8.81
2022-12-23T07:44:51.888Z,8.86
2022-12-23T07:45:59.637Z,8.88
2022-12-23T07:47:03.344Z,8.91
2022-12-23T07:48:05.357Z,8.92
2022-12-23T07:49:08.039Z,8.92
2022-12-23T07:50:10.181Z,8.93
2022-12-23T07:51:12.887Z,8.95
2022-12-23T07:52:15.892Z,8.96
2022-12-23T07:53:18.644Z,8.98
2022-12-23T07:54:20.416Z,9.00
2022-12-23T07:55:23.499Z,8.96
2022-12-23T07:56:26.315Z,9.00
2022-12-23T07:57:29.241Z,9.04
2022-12-23T07:58:31.995Z,9.03
2022-12-23T07:59:35.047Z,9.04
2022-12-23T08:00:37.775Z,9.04
2022-12-23T08:01:39.585Z,9.06
2022-12-23T08:02:42.655Z,9.07
2022-12-23T08:03:44.708Z,9.09
2022-12-23T08:04:47.586Z,9.12
2022-12-23T08:05:59.320Z,9.13
2022-12-23T08:07:01.999Z,9.15
2022-12-23T08:08:04.199Z,9.17
2022-12-23T08:09:09.449Z,9.15
2022-12-23T08:10:12.050Z,9.18
2022-12-23T08:11:16.872Z,9.18
2022-12-23T08:12:18.563Z,9.17
2022-12-23T08:13:21.246Z,9.20
2022-12-23T08:14:23.349Z,9.21
2022-12-23T08:15:27.439Z,9.20
2022-12-23T08:16:29.229Z,9.21
2022-12-23T08:17:32.852Z,9.22
2022-12-23T08:18:38.532Z,9.24
2022-12-23T08:19:41.574Z,9.25
2022-12-23T08:20:43.371Z,9.30
2022-12-23T08:21:46.027Z,9.30
2022-12-23T08:22:48.276Z,9.31
2022-12-23T08:23:52.399Z,9.35
2022-12-23T08:24:54.048Z,9.33
2022-12-23T08:26:01.555Z,9.34
2022-12-23T08:27:04.363Z,9.36
2022-12-23T08:28:06.097Z,9.37
2022-12-23T08:29:08.820Z,9.35
2022-12-23T08:30:12.554Z,9.35
2022-12-23T08:31:18.795Z,9.36
2022-12-23T08:32:20.583Z,9.39
2022-12-23T08:33:23.375Z,9.39
2022-12-23T08:34:25.301Z,9.39
2022-12-23T08:35:28.992Z,9.42
2022-12-23T08:36:33.672Z,9.42
2022-12-23T08:37:35.367Z,9.42
2022-12-23T08:38:38.336Z,9.42
2022-12-23T08:39:40.060Z,9.42
2022-12-23T08:40:42.860Z,9.47
2022-12-23T08:41:48.464Z,9.50
2022-12-23T08:42:51.178Z,9.52
2022-12-23T08:43:53.263Z,9.53
2022-12-23T08:44:58.767Z,9.55
2022-12-23T08:46:00.947Z,9.59
2022-12-23T08:47:05.029Z,9.61
2022-12-23T08:48:06.826Z,9.61
2022-12-23T08:49:10.411Z,9.64
2022-12-23T08:50:12.130Z,9.64
2022-12-23T08:51:17.044Z,9.69
2022-12-23T08:52:18.779Z,9.70
2022-12-23T08:53:21.627Z,9.71
2022-12-23T08:54:25.174Z,9.71
2022-12-23T08:55:26.874Z,9.69
2022-12-23T08:56:31.216Z,9.68
2022-12-23T08:57:35.307Z,9.66
2022-12-23T08:58:37.742Z,9.65
2022-12-23T08:59:40.430Z,9.62
2022-12-23T09:00:42.362Z,9.63
2022-12-23T09:01:45.220Z,9.62
2022-12-23T09:02:49.471Z,9.63
2022-12-23T09:03:53.087Z,9.64
2022-12-23T09:04:55.780Z,9.64
2022-12-23T09:05:57.498Z,9.65
2022-12-23T09:07:03.900Z,9.65
2022-12-23T09:08:05.629Z,9.68
2022-12-23T09:09:09.769Z,9.69
2022-12-23T09:10:11.737Z,9.70
2022-12-23T09:11:16.840Z,9.69
2022-12-23T09:12:19.525Z,9.69
2022-12-23T09:13:30.819Z,9.65
2022-12-23T09:14:37.435Z,9.65
2022-12-23T09:15:41.568Z,9.68
2022-12-23T09:16:44.251Z,9.71
2022-12-23T09:17:46.054Z,9.67
2022-12-23T09:18:50.146Z,9.71
2022-12-23T09:19:53.147Z,9.73
2022-12-23T09:20:59.143Z,9.70
2022-12-23T09:22:01.858Z,9.74
2022-12-23T09:23:04.120Z,9.75
2022-12-23T09:24:07.418Z,9.78
2022-12-23T09:25:10.902Z,9.77
2022-12-23T09:26:19.269Z,9.80
2022-12-23T09:27:21.953Z,9.79
2022-12-23T09:28:24.179Z,9.79
2022-12-23T09:29:26.905Z,9.79
2022-12-23T09:30:28.804Z,9.80
2022-12-23T09:31:36.881Z,9.81
2022-12-23T09:32:39.389Z,9.83
2022-12-23T09:33:42.186Z,9.83
2022-12-23T09:34:46.354Z,9.86
2022-12-23T09:35:48.094Z,9.88
2022-12-23T09:36:55.229Z,9.90
2022-12-23T09:37:58.337Z,9.93
2022-12-23T09:38:59.989Z,9.96
2022-12-23T09:40:03.157Z,9.93
2022-12-23T09:41:16.435Z,9.98
2022-12-23T09:42:32.205Z,10.04
2022-12-23T09:43:41.103Z,10.03
2022-12-23T09:44:54.065Z,10.06
2022-12-23T09:46:02.475Z,10.06
2022-12-23T09:47:06.306Z,10.04
2022-12-23T09:48:13.465Z,10.03
2022-12-23T09:49:17.528Z,10.04
2022-12-23T09:50:26.151Z,10.07
2022-12-23T09:51:29.457Z,10.10
2022-12-23T09:52:38.559Z,10.14
2022-12-23T09:53:50.831Z,10.20
2022-12-23T09:54:54.217Z,10.24
2022-12-23T09:56:03.025Z,10.28
2022-12-23T09:57:12.547Z,10.31
2022-12-23T09:58:22.783Z,10.34
2022-12-23T09:59:36.249Z,10.38
2022-12-23T10:00:40.869Z,10.42
2022-12-23T10:01:49.271Z,10.46
2022-12-23T10:03:01.746Z,10.51
2022-12-23T10:04:29.067Z,10.55
2022-12-23T10:05:40.458Z,10.57
2022-12-23T10:06:45.825Z,10.60
2022-12-23T10:07:51.251Z,10.61
2022-12-23T10:08:58.506Z,10.59
2022-12-23T10:10:06.094Z,10.57
2022-12-23T10:11:14.508Z,10.57
2022-12-23T10:12:27.634Z,10.53
2022-12-23T10:13:35.925Z,10.50
2022-12-23T10:14:37.781Z,10.50
2022-12-23T10:15:44.407Z,10.49
2022-12-23T10:16:49.990Z,10.47
2022-12-23T10:17:54.647Z,10.48
2022-12-23T10:19:01.234Z,10.47
2022-12-23T10:20:05.137Z,10.47
2022-12-23T10:21:14.508Z,10.46
2022-12-23T10:22:18.745Z,10.46
2022-12-23T10:23:26.909Z,10.44
2022-12-23T10:24:34.779Z,10.42
2022-12-23T10:25:39.657Z,10.40
2022-12-23T10:26:47.753Z,10.40
2022-12-23T10:27:49.581Z,10.40
2022-12-23T10:28:57.255Z,10.39
2022-12-23T10:30:13.954Z,10.35
2022-12-23T10:31:40.320Z,10.31
2022-12-23T10:32:53.742Z,10.32
2022-12-23T10:34:03.088Z,10.30
2022-12-23T10:35:13.300Z,10.30
2022-12-23T10:36:21.348Z,10.27
2022-12-23T10:37:30.437Z,10.24
2022-12-23T10:38:49.991Z,10.22
2022-12-23T10:40:02.466Z,10.19
2022-12-23T10:41:12.028Z,10.16
2022-12-23T10:42:20.063Z,10.17
2022-12-23T10:43:27.348Z,10.13
2022-12-23T10:44:54.381Z,10.11
2022-12-23T10:46:00.713Z,10.08
2022-12-23T10:47:13.169Z,10.06
2022-12-23T10:48:26.819Z,10.08
2022-12-23T10:49:33.497Z,10.07
2022-12-23T10:50:46.726Z,10.04
2022-12-23T10:51:52.769Z,10.03
2022-12-23T10:52:56.980Z,10.02
2022-12-23T10:54:02.351Z,9.98
2022-12-23T10:55:06.195Z,9.96
2022-12-23T10:56:09.566Z,9.94
2022-12-23T10:57:12.604Z,9.93
2022-12-23T10:58:18.262Z,9.95
2022-12-23T10:59:24.375Z,9.96
2022-12-23T11:00:26.230Z,9.97
2022-12-23T11:01:31.923Z,9.96
2022-12-23T11:02:46.092Z,9.95
2022-12-23T11:03:56.048Z,9.98
2022-12-23T11:04:57.907Z,9.97
2022-12-23T11:06:01.247Z,9.97
2022-12-23T11:07:41.949Z,9.97
2022-12-23T11:08:28.787Z,9.97
2022-12-23T11:09:38.344Z,9.98
2022-12-23T11:10:41.155Z,9.98
2022-12-23T11:12:05.569Z,9.99
2022-12-23T11:13:08.396Z,9.99
2022-12-23T11:14:29.635Z,10.01
2022-12-23T11:15:34.337Z,10.04
2022-12-23T11:16:46.366Z,10.05
2022-12-23T11:17:58.547Z,10.07
2022-12-23T11:19:05.457Z,10.09
2022-12-23T11:20:15.234Z,10.11
2022-12-23T11:21:17.049Z,10.14
2022-12-23T11:22:26.173Z,10.16
2022-12-23T11:23:30.455Z,10.19
2022-12-23T11:24:36.789Z,10.22
2022-12-23T11:25:44.697Z,10.25
2022-12-23T11:26:49.330Z,10.27
2022-12-23T11:27:52.604Z,10.28
2022-12-23T11:29:06.163Z,10.32
2022-12-23T11:30:18.824Z,10.34
2022-12-23T11:31:26.079Z,10.36
2022-12-23T11:32:29.734Z,10.36
2022-12-23T11:33:33.849Z,10.37
2022-12-23T11:34:38.650Z,10.39
2022-12-23T11:35:40.545Z,10.39
2022-12-23T11:36:44.100Z,10.39
2022-12-23T11:37:48.221Z,10.40
2022-12-23T11:38:51.403Z,10.41
2022-12-23T11:39:54.384Z,10.40
2022-12-23T11:40:57.341Z,10.39
2022-12-23T11:42:06.070Z,10.41
2022-12-23T11:43:16.535Z,10.40
2022-12-23T11:44:22.782Z,10.39
2022-12-23T11:45:27.892Z,10.40
2022-12-23T11:46:32.089Z,10.40
2022-12-23T11:47:38.448Z,10.40
2022-12-23T11:48:40.156Z,10.41
2022-12-23T11:49:49.447Z,10.37
2022-12-23T11:50:59.981Z,10.40
2022-12-23T11:52:10.723Z,10.42
2022-12-23T11:53:16.318Z,10.43
2022-12-23T11:54:25.313Z,10.44
2022-12-23T11:55:29.759Z,10.46
2022-12-23T11:56:37.213Z,10.48
2022-12-23T11:57:41.834Z,10.49
2022-12-23T11:58:48.090Z,10.50
2022-12-23T11:59:51.586Z,10.47
2022-12-23T12:00:56.862Z,10.48
2022-12-23T12:02:00.205Z,10.49
2022-12-23T12:03:04.661Z,10.50
2022-12-23T12:04:09.240Z,10.51
2022-12-23T12:05:20.044Z,10.53
2022-12-23T12:06:23.695Z,10.54
2022-12-23T12:07:26.810Z,10.56
2022-12-23T12:08:33.997Z,10.55
2022-12-23T12:09:40.670Z,10.56
2022-12-23T12:10:43.486Z,10.56
2022-12-23T12:11:48.567Z,10.57
2022-12-23T12:12:54.853Z,10.57
2022-12-23T12:14:00.611Z,10.56
2022-12-23T12:15:02.373Z,10.57
2022-12-23T12:16:24.047Z,10.54
2022-12-23T12:17:30.607Z,10.54
2022-12-23T12:18:33.445Z,10.54
2022-12-23T12:19:38.008Z,10.54
2022-12-23T12:20:42.330Z,10.56
2022-12-23T12:21:45.716Z,10.60
2022-12-23T12:22:52.582Z,10.61
2022-12-23T12:24:17.161Z,10.58
2022-12-23T12:25:22.568Z,10.58
2022-12-23T12:26:27.990Z,10.57
2022-12-23T12:27:37.121Z,10.56
2022-12-23T12:28:42.383Z,10.55
2022-12-23T12:29:47.501Z,10.55
2022-12-23T12:30:52.662Z,10.54
2022-12-23T12:31:57.790Z,10.52
2022-12-23T12:33:05.111Z,10.54
2022-12-23T12:34:31.401Z,10.52
2022-12-23T12:35:39.157Z,10.53
2022-12-23T12:36:47.041Z,10.52
2022-12-23T12:37:53.650Z,10.52
2022-12-23T12:38:59.903Z,10.55
2022-12-23T12:40:04.079Z,10.55
2022-12-23T12:41:12.398Z,10.55
2022-12-23T12:42:17.636Z,10.56
2022-12-23T12:43:25.596Z,10.56
2022-12-23T12:44:30.989Z,10.58
2022-12-23T12:45:40.043Z,10.58
2022-12-23T12:46:45.217Z,10.56
2022-12-23T12:47:58.449Z,10.57
2022-12-23T12:49:07.091Z,10.57
2022-12-23T12:50:13.498Z,10.55
2022-12-23T12:51:23.989Z,10.55
2022-12-23T12:52:27.002Z,10.56
2022-12-23T12:53:31.356Z,10.57
2022-12-23T12:54:37.613Z,10.59
2022-12-23T12:55:43.263Z,10.60
2022-12-23T12:56:49.361Z,10.62
2022-12-23T12:57:51.151Z,10.63
2022-12-23T12:58:53.895Z,10.64
2022-12-23T13:00:05.196Z,10.63
2022-12-23T13:01:21.763Z,10.65
2022-12-23T13:02:38.237Z,10.63
2022-12-23T13:04:07.881Z,10.64
2022-12-23T13:05:18.076Z,10.67
2022-12-23T13:06:27.416Z,10.69
2022-12-23T13:07:37.444Z,10.70
2022-12-23T13:08:52.404Z,10.68
2022-12-23T13:10:02.666Z,10.69
2022-12-23T13:11:10.633Z,10.67
2022-12-23T13:12:19.165Z,10.67
2022-12-23T13:13:31.180Z,10.67
2022-12-23T13:14:52.035Z,10.64
2022-12-23T13:15:59.435Z,10.64
2022-12-23T13:17:09.646Z,10.63
2022-12-23T13:18:20.686Z,10.61
2022-12-23T13:19:28.533Z,10.60
2022-12-23T13:20:33.203Z,10.58
2022-12-23T13:21:40.508Z,10.57
2022-12-23T13:22:42.973Z,10.55
2022-12-23T13:23:51.793Z,10.58
2022-12-23T13:25:01.722Z,10.56
2022-12-23T13:26:08.136Z,10.55
2022-12-23T13:27:13.043Z,10.56
2022-12-23T13:28:25.925Z,10.54
2022-12-23T13:29:37.657Z,10.53
2022-12-23T13:30:45.002Z,10.54
2022-12-23T13:31:53.283Z,10.50
2022-12-23T13:33:08.662Z,10.51
2022-12-23T13:34:22.199Z,10.51
2022-12-23T13:35:34.848Z,10.53
2022-12-23T13:36:44.282Z,10.47
2022-12-23T13:37:50.509Z,10.43
2022-12-23T13:39:05.026Z,10.45
2022-12-23T13:40:18.277Z,10.47
2022-12-23T13:41:28.458Z,10.46
2022-12-23T13:42:35.003Z,10.43
2022-12-23T13:43:42.360Z,10.45
2022-12-23T13:44:45.742Z,10.47
2022-12-23T13:45:47.999Z,10.44
2022-12-23T13:46:58.636Z,10.43
2022-12-23T13:48:14.513Z,10.39
2022-12-23T13:49:23.239Z,10.40
2022-12-23T13:50:34.168Z,10.45
2022-12-23T13:51:40.425Z,10.45
2022-12-23T13:52:56.658Z,10.45
2022-12-23T13:54:05.338Z,10.46
2022-12-23T13:55:17.178Z,10.48
2022-12-23T13:56:24.288Z,10.46
2022-12-23T13:57:43.836Z,10.42
2022-12-23T13:58:47.073Z,10.44
2022-12-23T14:00:04.894Z,10.46
2022-12-23T14:01:30.827Z,10.44
2022-12-23T14:02:41.887Z,10.44
2022-12-23T14:03:45.451Z,10.48
2022-12-23T14:05:00.885Z,10.50
2022-12-23T14:06:21.907Z,10.50
2022-12-23T14:07:25.218Z,10.52
2022-12-23T14:08:41.151Z,10.55
2022-12-23T14:09:44.385Z,10.55
2022-12-23T14:10:54.846Z,10.56
2022-12-23T14:12:02.692Z,10.60
2022-12-23T14:13:09.671Z,10.57
2022-12-23T14:14:21.328Z,10.58
2022-12-23T14:15:52.832Z,10.59
2022-12-23T14:17:03.332Z,10.60
2022-12-23T14:18:15.075Z,10.57
2022-12-23T14:19:37.399Z,10.55
2022-12-23T14:20:48.378Z,10.57
2022-12-23T14:21:58.934Z,10.55
2022-12-23T14:23:18.832Z,10.59
2022-12-23T14:24:46.019Z,10.60
2022-12-23T14:26:19.768Z,10.56
2022-12-23T14:27:43.965Z,10.59
2022-12-23T14:28:56.717Z,10.60
2022-12-23T14:30:10.779Z,10.62
2022-12-23T14:31:30.112Z,10.63